createdAt,value
2019-04-11T00:01:17.712Z,100107.23
2019-04-11T00:03:46.006Z,100106.37
2019-04-11T00:06:13.027Z,100103.90
2019-04-11T00:08:40.368Z,100106.81
2019-04-11T00:11:07.322Z,100112.29
2019-04-11T00:13:36.229Z,100108.91
2019-04-11T00:16:03.116Z,100113.14
2019-04-11T00:18:30.377Z,100113.55
2019-04-11T00:20:58.246Z,100110.23
2019-04-11T00:23:26.015Z,100109.78
2019-04-11T00:25:54.182Z,100104.72
2019-04-11T00:28:21.599Z,100105.16
2019-04-11T00:30:48.586Z,100105.16
2019-04-11T00:33:16.121Z,100107.28
2019-04-11T00:35:44.548Z,100099.23
2019-04-11T00:38:11.753Z,100102.60
2019-04-11T00:40:39.554Z,100099.22
2019-04-11T00:43:07.364Z,100094.56
2019-04-11T00:45:35.940Z,100096.69
2019-04-11T00:48:03.881Z,100099.19
2019-04-11T00:50:31.617Z,100107.23
2019-04-11T00:52:58.700Z,100109.31
2019-04-11T00:55:25.709Z,100109.31
2019-04-11T00:57:52.998Z,100108.05
2019-04-11T01:00:20.871Z,100099.62
2019-04-11T01:02:48.000Z,100112.29
2019-04-11T01:05:15.244Z,100111.84
2019-04-11T01:07:42.902Z,100114.38
2019-04-11T01:10:09.964Z,100115.23
2019-04-11T01:12:37.220Z,100117.77
2019-04-11T01:15:04.981Z,100120.30
2019-04-11T01:17:32.071Z,100119.03
2019-04-11T01:19:59.425Z,100121.97
2019-04-11T01:22:26.743Z,100119.84
2019-04-11T01:24:53.695Z,100119.44
2019-04-11T01:27:21.552Z,100120.70
2019-04-11T01:29:49.498Z,100114.38
2019-04-11T01:32:17.984Z,100116.50
2019-04-11T01:34:45.668Z,100120.30
2019-04-11T01:37:12.927Z,100120.30
2019-04-11T01:39:39.821Z,100116.49
2019-04-11T01:42:06.984Z,100121.56
2019-04-11T01:44:34.017Z,100121.11
2019-04-11T01:47:00.905Z,100126.17
2019-04-11T01:49:28.304Z,100121.51
2019-04-11T01:51:56.076Z,100126.56
2019-04-11T01:54:23.720Z,100129.50
2019-04-11T01:56:51.627Z,100131.62
2019-04-11T01:59:19.501Z,100124.02
2019-04-11T02:01:47.258Z,100131.17
2019-04-11T02:04:14.548Z,100122.75
2019-04-11T02:06:42.448Z,100131.16
2019-04-11T02:09:09.767Z,100142.13
2019-04-11T02:11:37.312Z,100135.34
2019-04-11T02:14:10.846Z,100141.26
2019-04-11T02:16:32.960Z,100134.92
2019-04-11T02:18:59.912Z,100131.94
2019-04-11T02:21:27.443Z,100134.86
2019-04-11T02:23:55.248Z,100137.83
2019-04-11T02:26:22.289Z,100136.97
2019-04-11T02:28:49.178Z,100136.97
2019-04-11T02:31:17.351Z,100144.55
2019-04-11T02:33:46.764Z,100136.55
2019-04-11T02:36:13.901Z,100144.52
2019-04-11T02:38:41.399Z,100141.98
2019-04-11T02:41:11.707Z,100141.13
2019-04-11T02:43:40.254Z,100146.98
2019-04-11T02:46:17.526Z,100146.53
2019-04-11T02:48:36.128Z,100153.27
2019-04-11T02:51:05.710Z,100146.13
2019-04-11T02:53:34.202Z,100153.27
2019-04-11T02:56:02.833Z,100149.05
2019-04-11T02:58:31.658Z,100149.48
2019-04-11T03:01:02.858Z,100146.13
2019-04-11T03:03:29.592Z,100148.66
2019-04-11T03:05:58.161Z,100154.92
2019-04-11T03:08:26.789Z,100154.48
2019-04-11T03:10:55.668Z,100158.50
2019-04-11T03:13:23.358Z,100166.78
2019-04-11T03:16:07.541Z,100172.68
2019-04-11T03:18:40.706Z,100168.58
2019-04-11T03:20:56.153Z,100166.58
2019-04-11T03:23:21.041Z,100167.48
2019-04-11T03:25:47.008Z,100169.15
2019-04-11T03:28:19.303Z,100172.58
2019-04-11T03:31:03.836Z,100173.05
2019-04-11T03:38:31.677Z,100177.98
2019-04-11T03:40:57.686Z,100179.70
2019-04-11T03:43:23.199Z,100186.06
2019-04-11T03:45:52.456Z,100186.47
2019-04-11T03:48:18.138Z,100193.13
2019-04-11T03:50:36.186Z,100191.87
2019-04-11T03:53:04.748Z,100194.39
2019-04-11T03:55:32.429Z,100204.95
2019-04-11T03:58:01.216Z,100200.70
2019-04-11T04:00:33.561Z,100198.58
2019-04-11T04:02:57.972Z,100199.02
2019-04-11T04:05:26.352Z,100198.19
2019-04-11T04:07:55.230Z,100202.86
2019-04-11T04:10:23.598Z,100209.16
2019-04-11T04:12:51.700Z,100207.50
2019-04-11T04:15:37.497Z,100213.87
2019-04-11T04:17:47.815Z,100215.97
2019-04-11T04:20:15.676Z,100221.09
2019-04-11T04:22:47.424Z,100216.91
2019-04-11T04:25:14.199Z,100215.21
2019-04-11T04:27:42.775Z,100217.77
2019-04-11T04:30:11.013Z,100220.70
2019-04-11T04:32:38.775Z,100224.89
2019-04-11T04:35:09.153Z,100228.25
2019-04-11T04:37:34.895Z,100227.03
2019-04-11T04:40:17.884Z,100231.25
2019-04-11T04:42:37.060Z,100232.95
2019-04-11T04:45:00.240Z,100235.47
2019-04-11T04:47:37.217Z,100232.50
2019-04-11T04:49:57.082Z,100237.95
2019-04-11T04:52:25.262Z,100244.67
2019-04-11T04:54:54.788Z,100254.41
2019-04-11T04:57:21.832Z,100250.70
2019-04-11T04:59:49.059Z,100249.87
2019-04-11T05:02:17.851Z,100253.27
2019-04-11T05:04:45.886Z,100257.46
2019-04-11T05:07:12.856Z,100256.17
2019-04-11T05:09:40.429Z,100257.42
2019-04-11T05:12:07.905Z,100264.16
2019-04-11T05:14:35.201Z,100269.70
2019-04-11T05:17:02.457Z,100266.78
2019-04-11T05:19:30.040Z,100270.14
2019-04-11T05:21:57.567Z,100271.02
2019-04-11T05:24:24.541Z,100271.88
2019-04-11T05:26:52.323Z,100273.58
2019-04-11T05:29:19.632Z,100271.49
2019-04-11T05:31:47.737Z,100266.45
2019-04-11T05:34:16.005Z,100273.28
2019-04-11T05:36:43.402Z,100280.08
2019-04-11T05:39:10.683Z,100276.74
2019-04-11T05:41:37.746Z,100280.97
2019-04-11T05:44:08.880Z,100280.56
2019-04-11T05:46:45.705Z,100278.89
2019-04-11T05:49:02.673Z,100287.31
2019-04-11T05:51:36.937Z,100292.42
2019-04-11T05:54:01.953Z,100292.83
2019-04-11T05:56:27.977Z,100291.53
2019-04-11T05:58:55.617Z,100287.67
2019-04-11T06:01:22.879Z,100293.19
2019-04-11T06:03:50.848Z,100298.30
2019-04-11T06:06:18.628Z,100296.25
2019-04-11T06:08:46.115Z,100296.73
2019-04-11T06:11:16.389Z,100298.46
2019-04-11T06:13:42.794Z,100303.13
2019-04-11T06:16:10.866Z,100298.94
2019-04-11T06:18:41.902Z,100305.31
2019-04-11T06:21:07.420Z,100302.80
2019-04-11T06:23:35.085Z,100301.95
2019-04-11T06:26:02.287Z,99957.60
2019-04-11T06:28:30.613Z,100307.45
2019-04-11T06:30:58.974Z,100304.48
2019-04-11T06:33:26.767Z,100303.66
2019-04-11T06:35:54.571Z,100307.87
2019-04-11T06:38:22.657Z,100297.77
2019-04-11T06:40:50.997Z,100306.22
2019-04-11T06:43:18.338Z,100306.20
2019-04-11T06:45:46.090Z,100298.62
2019-04-11T06:48:13.575Z,100300.73
2019-04-11T06:50:41.454Z,100305.80
2019-04-11T06:53:08.982Z,100301.95
2019-04-11T06:55:36.976Z,100309.52
2019-04-11T06:58:04.761Z,100304.87
2019-04-11T07:00:31.784Z,100307.81
2019-04-11T07:02:59.267Z,100304.44
2019-04-11T07:05:26.778Z,100302.72
2019-04-11T07:07:53.812Z,100307.44
2019-04-11T07:10:20.710Z,100308.69
2019-04-11T07:12:47.602Z,100319.60
2019-04-11T07:15:14.568Z,100310.25
2019-04-11T07:17:41.861Z,100320.34
2019-04-11T07:20:09.109Z,100320.30
2019-04-11T07:22:36.852Z,100326.64
2019-04-11T07:25:05.990Z,100331.28
2019-04-11T07:27:33.122Z,100327.45
2019-04-11T07:30:00.072Z,100324.14
2019-04-11T07:32:27.830Z,100331.81
2019-04-11T07:34:56.445Z,100326.39
2019-04-11T07:37:23.655Z,100330.66
2019-04-11T07:39:51.619Z,100335.73
2019-04-11T07:42:18.652Z,100329.78
2019-04-11T07:44:45.601Z,100337.34
2019-04-11T07:47:18.674Z,100339.02
2019-04-11T07:49:41.061Z,100337.77
2019-04-11T07:52:08.954Z,100345.37
2019-04-11T07:54:36.969Z,100343.74
2019-04-11T07:57:04.285Z,100348.84
2019-04-11T07:59:31.566Z,100340.41
2019-04-11T08:01:59.306Z,100346.72
2019-04-11T08:04:27.672Z,100354.20
2019-04-11T08:06:56.301Z,100353.33
2019-04-11T08:09:24.407Z,100360.52
2019-04-11T08:11:51.903Z,100359.11
2019-04-11T08:14:20.142Z,100358.40
2019-04-11T08:16:47.222Z,100349.64
2019-04-11T08:19:15.311Z,100355.70
2019-04-11T08:21:42.391Z,100354.14
2019-04-11T08:24:09.997Z,100357.72
2019-04-11T08:26:38.101Z,100354.23
2019-04-11T08:29:10.592Z,100352.00
2019-04-11T08:31:33.632Z,100366.14
2019-04-11T08:34:02.800Z,100353.28
2019-04-11T08:36:29.835Z,100353.38
2019-04-11T08:38:57.062Z,100359.08
2019-04-11T08:41:23.933Z,100376.05
2019-04-11T08:43:51.191Z,100360.45
2019-04-11T08:46:18.518Z,100367.05
2019-04-11T08:48:45.737Z,100366.56
2019-04-11T08:51:12.720Z,100370.98
2019-04-11T08:53:40.657Z,100365.63
2019-04-11T08:56:07.746Z,100364.91
2019-04-11T08:58:35.012Z,100370.48
2019-04-11T09:01:03.298Z,100366.00
2019-04-11T09:03:33.569Z,100378.38
2019-04-11T09:06:02.694Z,100366.14
2019-04-11T09:08:30.093Z,100366.60
2019-04-11T09:10:58.142Z,100367.44
2019-04-11T09:13:25.167Z,100372.11
2019-04-11T09:15:52.928Z,100367.09
2019-04-11T09:18:19.962Z,100372.19
2019-04-11T09:20:47.756Z,100367.93
2019-04-11T09:23:16.124Z,100359.45
2019-04-11T09:25:43.455Z,100362.86
2019-04-11T09:28:11.624Z,100361.56
2019-04-11T09:30:38.938Z,100356.89
2019-04-11T09:33:06.795Z,100359.03
2019-04-11T09:35:33.788Z,100370.02
2019-04-11T09:38:02.303Z,100367.53
2019-04-11T09:40:29.904Z,100368.38
2019-04-11T09:42:57.602Z,100375.58
2019-04-11T09:45:25.726Z,100376.43
2019-04-11T09:47:57.698Z,100371.36
2019-04-11T09:50:22.410Z,100367.97
2019-04-11T09:52:49.713Z,100384.86
2019-04-11T09:55:17.157Z,100367.98
2019-04-11T09:57:44.222Z,100373.05
2019-04-11T10:00:12.374Z,100377.22
2019-04-11T10:02:40.451Z,100371.30
2019-04-11T10:05:07.555Z,100371.30
2019-04-11T10:07:35.553Z,100365.81
2019-04-11T10:10:02.699Z,100369.62
2019-04-11T10:12:31.859Z,100370.88
2019-04-11T10:14:59.996Z,100376.78
2019-04-11T10:17:27.022Z,100369.62
2019-04-11T10:19:54.223Z,100373.86
2019-04-11T10:22:21.247Z,100371.78
2019-04-11T10:24:48.448Z,100363.74
2019-04-11T10:27:16.350Z,100367.97
2019-04-11T10:29:44.059Z,100379.37
2019-04-11T10:32:11.398Z,100367.56
2019-04-11T10:34:38.630Z,100370.52
2019-04-11T10:37:05.537Z,100371.34
2019-04-11T10:39:33.329Z,100376.81
2019-04-11T10:42:00.705Z,100378.49
2019-04-11T10:44:27.954Z,100370.89
2019-04-11T10:46:55.744Z,100371.33
2019-04-11T10:49:22.963Z,100365.84
2019-04-11T10:51:49.968Z,100367.11
2019-04-11T10:54:16.968Z,100373.47
2019-04-11T10:56:43.907Z,100372.65
2019-04-11T10:59:10.777Z,100364.58
2019-04-11T11:01:38.012Z,100362.03
2019-04-11T11:04:04.910Z,100367.55
2019-04-11T11:06:31.874Z,100361.17
2019-04-11T11:08:58.828Z,100364.15
2019-04-11T11:11:26.166Z,100375.57
2019-04-11T11:13:54.278Z,100370.95
2019-04-11T11:16:22.300Z,100376.84
2019-04-11T11:19:22.259Z,100387.83
2019-04-11T11:21:17.857Z,100375.56
2019-04-11T11:23:45.069Z,100386.56
2019-04-11T11:26:12.594Z,100392.92
2019-04-11T11:28:41.044Z,100385.75
2019-04-11T11:31:08.296Z,100389.95
2019-04-11T11:33:35.289Z,100395.03
2019-04-11T11:36:04.582Z,100388.69
2019-04-11T11:38:30.725Z,100391.67
2019-04-11T11:40:58.450Z,100388.27
2019-04-11T11:43:25.835Z,100389.53
2019-04-11T11:45:55.513Z,100391.66
2019-04-11T11:48:23.124Z,100395.89
2019-04-11T11:50:51.444Z,100396.72
2019-04-11T11:53:18.554Z,100415.33
2019-04-11T11:55:45.512Z,100409.41
2019-04-11T11:58:16.680Z,100419.98
2019-04-11T12:00:41.407Z,100416.20
2019-04-11T12:03:08.689Z,100411.11
2019-04-11T12:05:36.760Z,100410.27
2019-04-11T12:08:04.297Z,100413.18
2019-04-11T12:10:33.634Z,100410.19
2019-04-11T12:13:06.673Z,100414.00
2019-04-11T12:15:30.315Z,100422.47
2019-04-11T12:17:57.695Z,100421.14
2019-04-11T12:20:24.891Z,100422.81
2019-04-11T12:22:52.630Z,100414.40
2019-04-11T12:25:20.844Z,100416.53
2019-04-11T12:27:47.902Z,100415.67
2019-04-11T12:30:15.671Z,100410.64
2019-04-11T12:32:42.763Z,100412.73
2019-04-11T12:35:09.696Z,100413.59
2019-04-11T12:37:37.740Z,100416.53
2019-04-11T12:40:05.117Z,100410.20
2019-04-11T12:42:32.001Z,100416.53
2019-04-11T12:44:59.720Z,100412.77
2019-04-11T12:47:27.201Z,100411.53
2019-04-11T12:49:54.097Z,100400.95
2019-04-11T12:52:21.040Z,100409.86
2019-04-11T12:54:48.320Z,100414.49
2019-04-11T12:57:15.264Z,100405.19
2019-04-11T12:59:42.314Z,100410.64
2019-04-11T13:02:09.231Z,100406.79
2019-04-11T13:04:36.424Z,100413.13
2019-04-11T13:07:03.380Z,100412.72
2019-04-11T13:09:30.606Z,100403.80
2019-04-11T13:11:57.474Z,100408.47
2019-04-11T13:14:24.352Z,100409.33
2019-04-11T13:16:51.245Z,100421.61
2019-04-11T13:19:18.186Z,100418.20
2019-04-11T13:21:45.055Z,100421.19
2019-04-11T13:24:11.925Z,100419.47
2019-04-11T13:26:39.124Z,100416.94
2019-04-11T13:29:06.007Z,100419.47
2019-04-11T13:31:32.901Z,100411.00
2019-04-11T13:34:00.211Z,100419.45
2019-04-11T13:36:28.210Z,100420.73
2019-04-11T13:38:55.115Z,100422.86
2019-04-11T13:41:22.072Z,100422.88
2019-04-11T13:43:49.073Z,100427.13
2019-04-11T13:46:16.361Z,100433.89
2019-04-11T13:48:44.305Z,100426.27
2019-04-11T13:51:11.878Z,100425.80
2019-04-11T13:53:39.140Z,100424.95
2019-04-11T13:56:06.040Z,100431.75
2019-04-11T13:58:32.993Z,100425.86
2019-04-11T14:00:59.859Z,100431.80
2019-04-11T14:03:26.739Z,100423.33
2019-04-11T14:05:53.695Z,100428.84
2019-04-11T14:08:20.557Z,100427.20
2019-04-11T14:10:47.736Z,100427.19
2019-04-11T14:13:14.609Z,100422.52
2019-04-11T14:15:41.582Z,100413.22
2019-04-11T14:18:11.386Z,100417.88
2019-04-11T14:20:37.424Z,100417.88
2019-04-11T14:23:04.531Z,100412.81
2019-04-11T14:25:31.497Z,100416.63
2019-04-11T14:27:58.804Z,100407.72
2019-04-11T14:30:26.265Z,100411.09
2019-04-11T14:32:53.958Z,100409.82
2019-04-11T14:35:21.805Z,100408.58
2019-04-11T14:37:48.693Z,100408.58
2019-04-11T14:40:15.894Z,100400.97
2019-04-11T14:42:45.961Z,100408.58
2019-04-11T14:45:14.168Z,100411.53
2019-04-11T14:47:41.114Z,100410.20
2019-04-11T14:50:08.754Z,100406.80
2019-04-11T14:52:37.057Z,100408.52
2019-04-11T14:55:03.950Z,100409.38
2019-04-11T14:57:32.072Z,100412.77
2019-04-11T14:59:59.017Z,100410.23
2019-04-11T15:02:25.993Z,100416.58
2019-04-11T15:04:52.983Z,100413.59
2019-04-11T15:07:19.967Z,100414.89
2019-04-11T15:09:47.297Z,100411.09
2019-04-11T15:12:17.574Z,100424.19
2019-04-11T15:14:43.281Z,100414.00
2019-04-11T15:17:10.171Z,100411.91
2019-04-11T15:19:37.483Z,100411.91
2019-04-11T15:22:06.274Z,100422.06
2019-04-11T15:24:37.486Z,100422.06
2019-04-11T15:27:02.106Z,100413.58
2019-04-11T15:29:30.016Z,100413.59
2019-04-11T15:31:59.703Z,100419.07
2019-04-11T15:34:25.912Z,100420.34
2019-04-11T15:36:53.146Z,100420.33
2019-04-11T15:39:20.058Z,100417.80
2019-04-11T15:41:47.009Z,100414.00
2019-04-11T15:44:14.574Z,100414.45
2019-04-11T15:46:43.208Z,100421.61
2019-04-11T15:49:20.040Z,100423.73
2019-04-11T15:51:50.100Z,100420.34
2019-04-11T15:54:17.336Z,100418.21
2019-04-11T15:56:44.603Z,100421.20
2019-04-11T15:59:13.121Z,100429.26
2019-04-11T16:01:40.610Z,100430.53
2019-04-11T16:04:07.803Z,100425.41
2019-04-11T16:06:38.822Z,100424.14
2019-04-11T16:09:04.596Z,100432.59
2019-04-11T16:11:31.610Z,100428.74
2019-04-11T16:13:58.865Z,100427.53
2019-04-11T16:16:26.104Z,100426.27
2019-04-11T16:18:53.368Z,100427.95
2019-04-11T16:21:23.949Z,100429.63
2019-04-11T16:23:49.990Z,100430.06
2019-04-11T16:26:17.856Z,100430.48
2019-04-11T16:28:45.131Z,100428.80
2019-04-11T16:31:12.325Z,100425.39
2019-04-11T16:33:39.254Z,100430.80
2019-04-11T16:36:06.484Z,100433.33
2019-04-11T16:38:33.388Z,100440.52
2019-04-11T16:41:00.673Z,100436.73
2019-04-11T16:43:27.933Z,100437.59
2019-04-11T16:45:55.370Z,100441.38
2019-04-11T16:48:25.670Z,100440.44
2019-04-11T16:50:52.441Z,100441.30
2019-04-11T16:53:19.370Z,100441.72
2019-04-11T16:55:46.345Z,100442.64
2019-04-11T16:58:16.983Z,100443.95
2019-04-11T17:00:41.968Z,100448.52
2019-04-11T17:03:08.906Z,100455.64
2019-04-11T17:05:35.783Z,100444.23
2019-04-11T17:08:02.760Z,100448.00
2019-04-11T17:10:29.661Z,100445.44
2019-04-11T17:12:56.715Z,100449.27
2019-04-11T17:15:23.686Z,100452.22
2019-04-11T17:17:50.585Z,100456.45
2019-04-11T17:20:17.881Z,100459.43
2019-04-11T17:22:48.404Z,100455.61
2019-04-11T17:25:13.804Z,100454.81
2019-04-11T17:27:40.798Z,100456.91
2019-04-11T17:30:07.817Z,100456.52
2019-04-11T17:32:34.793Z,100463.71
2019-04-11T17:35:02.477Z,100467.50
2019-04-11T17:37:32.924Z,100471.23
2019-04-11T17:40:00.092Z,100472.91
2019-04-11T17:42:27.343Z,100474.10
2019-04-11T17:44:54.360Z,100483.27
2019-04-11T17:47:21.756Z,100486.19
2019-04-11T17:49:50.350Z,100482.84
2019-04-11T17:52:17.433Z,100481.66
2019-04-11T17:54:44.462Z,100491.30
2019-04-11T17:57:11.362Z,100489.59
2019-04-11T17:59:38.712Z,100495.02
2019-04-11T18:02:10.143Z,100500.06
2019-04-11T18:04:35.446Z,100502.98
2019-04-11T18:07:04.065Z,100500.94
2019-04-11T18:09:31.433Z,100506.08
2019-04-11T18:11:58.968Z,100512.08
2019-04-11T18:14:30.945Z,100512.08
2019-04-11T18:16:55.930Z,100519.70
2019-04-11T18:19:24.271Z,100523.08
2019-04-11T18:21:51.276Z,100529.78
2019-04-11T18:24:19.969Z,100526.34
2019-04-11T18:26:51.763Z,100531.38
2019-04-11T18:29:16.704Z,100536.88
2019-04-11T18:31:43.997Z,100539.09
2019-04-11T18:34:12.037Z,100538.30
2019-04-11T18:36:39.107Z,100541.73
2019-04-11T18:39:06.081Z,100544.27
2019-04-11T18:41:33.600Z,100546.28
2019-04-11T18:44:00.563Z,100543.30
2019-04-11T18:46:28.031Z,100547.50
2019-04-11T18:48:54.993Z,100552.52
2019-04-11T18:51:23.189Z,100552.48
2019-04-11T18:53:51.084Z,100554.54
2019-04-11T18:56:18.076Z,100554.19
2019-04-11T18:58:45.064Z,100555.52
2019-04-11T19:01:12.060Z,100556.05
2019-04-11T19:03:41.348Z,100556.58
2019-04-11T19:06:08.364Z,100550.39
2019-04-11T19:08:35.779Z,100555.98
2019-04-11T19:11:03.059Z,100562.34
2019-04-11T19:13:30.038Z,100564.47
2019-04-11T19:15:56.993Z,100563.20
2019-04-11T19:18:24.350Z,100562.33
2019-04-11T19:20:51.251Z,100559.77
2019-04-11T19:23:18.720Z,100553.44
2019-04-11T19:25:45.637Z,100557.23
2019-04-11T19:28:12.847Z,100556.38
2019-04-11T19:30:42.340Z,100562.26
2019-04-11T19:33:08.762Z,100566.05
2019-04-11T19:35:35.732Z,100560.55
2019-04-11T19:38:02.983Z,100558.01
2019-04-11T19:40:30.585Z,100563.48
2019-04-11T19:42:58.078Z,100558.02
2019-04-11T19:45:25.092Z,100562.23
2019-04-11T19:47:52.831Z,100560.97
2019-04-11T19:50:20.308Z,100555.90
2019-04-11T19:52:47.329Z,100562.70
2019-04-11T19:55:14.272Z,100559.70
2019-04-11T19:57:41.299Z,100558.80
2019-04-11T20:00:08.748Z,100561.70
2019-04-11T20:02:35.688Z,100562.53
2019-04-11T20:05:02.669Z,100557.89
2019-04-11T20:07:30.097Z,100558.75
2019-04-11T20:09:58.497Z,100561.64
2019-04-11T20:12:27.774Z,100563.52
2019-04-11T20:14:54.849Z,100559.59
2019-04-11T20:17:22.081Z,100562.13
2019-04-11T20:20:00.683Z,100560.89
2019-04-11T20:22:18.055Z,100558.73
2019-04-11T20:24:46.937Z,100560.83
2019-04-11T20:27:13.653Z,100560.31
2019-04-11T20:29:40.925Z,100557.41
2019-04-11T20:32:08.151Z,100560.77
2019-04-11T20:34:38.025Z,100561.11
2019-04-11T20:37:03.705Z,100561.89
2019-04-11T20:39:30.585Z,100558.13
2019-04-11T20:41:57.525Z,100559.02
2019-04-11T20:44:27.243Z,100561.57
2019-04-11T20:46:53.070Z,100556.94
2019-04-11T20:49:20.117Z,100557.35
2019-04-11T20:51:47.414Z,100561.55
2019-04-11T20:54:14.319Z,100557.75
2019-04-11T20:56:41.271Z,100559.83
2019-04-11T20:59:10.371Z,100560.73
2019-04-11T21:01:37.135Z,100561.62
2019-04-11T21:04:04.817Z,100559.05
2019-04-11T21:06:32.598Z,100562.47
2019-04-11T21:09:02.863Z,100556.55
2019-04-11T21:11:30.159Z,100560.80
2019-04-11T21:13:57.385Z,100562.88
2019-04-11T21:16:24.640Z,100563.31
2019-04-11T21:18:54.491Z,100561.17
2019-04-11T21:21:20.489Z,100561.95
2019-04-11T21:23:47.420Z,100560.73
2019-04-11T21:26:14.573Z,100560.80
2019-04-11T21:28:42.084Z,100562.96
2019-04-11T21:31:09.112Z,100562.59
2019-04-11T21:33:36.337Z,100561.34
2019-04-11T21:36:03.953Z,100566.84
2019-04-11T21:38:31.510Z,100565.98
2019-04-11T21:40:58.908Z,100568.95
2019-04-11T21:43:26.472Z,100571.89
2019-04-11T21:45:53.794Z,100574.42
2019-04-11T21:48:20.976Z,100570.13
2019-04-11T21:50:47.861Z,100568.39
2019-04-11T21:53:15.042Z,100560.75
2019-04-11T21:55:42.480Z,100562.87
2019-04-11T21:58:12.750Z,100567.50
2019-04-11T22:00:39.741Z,100561.57
2019-04-11T22:03:08.304Z,100562.86
2019-04-11T22:05:35.281Z,100570.02
2019-04-11T22:08:03.986Z,100562.39
2019-04-11T22:10:31.012Z,100571.99
2019-04-11T22:12:57.990Z,100573.67
2019-04-11T22:15:24.916Z,100572.39
2019-04-11T22:17:51.930Z,100563.19
2019-04-11T22:20:18.806Z,100570.81
2019-04-11T22:22:46.063Z,100562.02
2019-04-11T22:25:13.362Z,100564.59
2019-04-11T22:27:40.602Z,100560.30
2019-04-11T22:30:07.483Z,100563.67
2019-04-11T22:32:34.429Z,100561.17
2019-04-11T22:35:01.325Z,100562.43
2019-04-11T22:37:30.087Z,100559.94
2019-04-11T22:39:56.964Z,100562.88
2019-04-11T22:42:23.846Z,100561.17
2019-04-11T22:44:50.709Z,100558.59
2019-04-11T22:47:17.620Z,100564.79
2019-04-11T22:49:45.004Z,100563.95
2019-04-11T22:52:12.213Z,100562.73
2019-04-11T22:54:41.227Z,100566.14
2019-04-11T22:57:11.676Z,100567.00
2019-04-11T22:59:36.727Z,100562.37
2019-04-11T23:02:03.992Z,100564.00
2019-04-11T23:04:30.887Z,100565.66
2019-04-11T23:06:57.753Z,100569.52
2019-04-11T23:09:24.912Z,100563.66
2019-04-11T23:11:52.065Z,100565.73
2019-04-11T23:14:19.222Z,100566.19
2019-04-11T23:16:46.443Z,100562.00
2019-04-11T23:19:14.296Z,100564.90
2019-04-11T23:21:42.133Z,100561.83
2019-04-11T23:24:12.122Z,100561.35
2019-04-11T23:26:38.167Z,100555.42
2019-04-11T23:29:05.160Z,100559.68
2019-04-11T23:31:32.036Z,100561.83
2019-04-11T23:33:59.207Z,100557.20
2019-04-11T23:36:26.148Z,100570.30
2019-04-11T23:38:53.793Z,100566.46
2019-04-11T23:41:20.840Z,100561.39
2019-04-11T23:43:49.980Z,100560.58
2019-04-11T23:46:18.952Z,100562.21
2019-04-11T23:48:45.254Z,100556.69
2019-04-11T23:51:12.118Z,100558.32
2019-04-11T23:53:39.016Z,100559.45
2019-04-11T23:56:05.909Z,100558.19
2019-04-11T23:58:32.821Z,100557.85
